sensor_id;sensor_type;location;lat;lon;timestamp;P1;durP1;ratioP1;P2;durP2;ratioP2
78342;SDS011;67618;52.444;21.192;2023-03-23T00:04:02;26.70;;;15.10;;
78342;SDS011;67618;52.444;21.192;2023-03-23T00:09:04;25.70;;;15.60;;
78342;SDS011;67618;52.444;21.192;2023-03-23T00:14:06;24.70;;;14.90;;
78342;SDS011;67618;52.444;21.192;2023-03-23T00:19:13;20.60;;;13.30;;
78342;SDS011;67618;52.444;21.192;2023-03-23T00:24:16;28.20;;;15.50;;
78342;SDS011;67618;52.444;21.192;2023-03-23T00:29:20;24.60;;;14.30;;
78342;SDS011;67618;52.444;21.192;2023-03-23T00:34:23;25.60;;;15.10;;
78342;SDS011;67618;52.444;21.192;2023-03-23T00:39:26;24.60;;;14.80;;
78342;SDS011;67618;52.444;21.192;2023-03-23T00:44:30;25.10;;;14.90;;
78342;SDS011;67618;52.444;21.192;2023-03-23T00:49:32;22.80;;;13.70;;
78342;SDS011;67618;52.444;21.192;2023-03-23T00:54:35;23.30;;;14.40;;
78342;SDS011;67618;52.444;21.192;2023-03-23T00:59:38;25.60;;;14.90;;
78342;SDS011;67618;52.444;21.192;2023-03-23T01:04:40;23.50;;;14.70;;
78342;SDS011;67618;52.444;21.192;2023-03-23T01:09:46;22.20;;;13.70;;
78342;SDS011;67618;52.444;21.192;2023-03-23T01:14:49;23.40;;;13.80;;
78342;SDS011;67618;52.444;21.192;2023-03-23T01:19:50;27.00;;;15.70;;
78342;SDS011;67618;52.444;21.192;2023-03-23T01:24:52;27.00;;;16.10;;
78342;SDS011;67618;52.444;21.192;2023-03-23T01:29:53;26.40;;;14.90;;
78342;SDS011;67618;52.444;21.192;2023-03-23T01:34:55;26.00;;;14.70;;
78342;SDS011;67618;52.444;21.192;2023-03-23T01:39:56;23.90;;;13.70;;
78342;SDS011;67618;52.444;21.192;2023-03-23T01:45:17;26.30;;;14.40;;
78342;SDS011;67618;52.444;21.192;2023-03-23T01:50:20;28.30;;;15.50;;
78342;SDS011;67618;52.444;21.192;2023-03-23T01:55:25;26.60;;;14.20;;
78342;SDS011;67618;52.444;21.192;2023-03-23T02:00:28;23.70;;;15.00;;
78342;SDS011;67618;52.444;21.192;2023-03-23T02:05:36;26.90;;;15.50;;
78342;SDS011;67618;52.444;21.192;2023-03-23T02:10:41;24.80;;;15.70;;
78342;SDS011;67618;52.444;21.192;2023-03-23T02:16:04;22.70;;;13.30;;
78342;SDS011;67618;52.444;21.192;2023-03-23T02:42:38;26.00;;;14.70;;
78342;SDS011;67618;52.444;21.192;2023-03-23T02:47:43;25.20;;;15.30;;
78342;SDS011;67618;52.444;21.192;2023-03-23T02:52:47;24.90;;;14.80;;
78342;SDS011;67618;52.444;21.192;2023-03-23T02:57:54;23.50;;;14.90;;
78342;SDS011;67618;52.444;21.192;2023-03-23T03:02:56;28.20;;;14.70;;
78342;SDS011;67618;52.444;21.192;2023-03-23T03:08:00;24.10;;;16.10;;
78342;SDS011;67618;52.444;21.192;2023-03-23T03:13:16;22.20;;;13.40;;
78342;SDS011;67618;52.444;21.192;2023-03-23T03:18:22;28.80;;;14.40;;
78342;SDS011;67618;52.444;21.192;2023-03-23T03:23:29;39.90;;;21.80;;
78342;SDS011;67618;52.444;21.192;2023-03-23T03:28:33;22.70;;;14.30;;
78342;SDS011;67618;52.444;21.192;2023-03-23T03:33:34;25.50;;;15.40;;
78342;SDS011;67618;52.444;21.192;2023-03-23T03:38:43;28.70;;;15.80;;
78342;SDS011;67618;52.444;21.192;2023-03-23T03:43:46;25.60;;;14.80;;
78342;SDS011;67618;52.444;21.192;2023-03-23T03:48:47;27.80;;;15.20;;
78342;SDS011;67618;52.444;21.192;2023-03-23T03:53:49;27.40;;;16.90;;
78342;SDS011;67618;52.444;21.192;2023-03-23T03:58:51;22.80;;;13.10;;
78342;SDS011;67618;52.444;21.192;2023-03-23T04:03:53;25.90;;;15.90;;
78342;SDS011;67618;52.444;21.192;2023-03-23T04:08:55;25.80;;;14.00;;
78342;SDS011;67618;52.444;21.192;2023-03-23T04:13:57;28.40;;;16.30;;
78342;SDS011;67618;52.444;21.192;2023-03-23T04:18:58;23.80;;;15.20;;
78342;SDS011;67618;52.444;21.192;2023-03-23T04:24:00;19.40;;;12.70;;
78342;SDS011;67618;52.444;21.192;2023-03-23T04:29:02;21.80;;;13.70;;
78342;SDS011;67618;52.444;21.192;2023-03-23T04:34:04;25.80;;;15.30;;
78342;SDS011;67618;52.444;21.192;2023-03-23T04:39:05;24.40;;;15.10;;
78342;SDS011;67618;52.444;21.192;2023-03-23T04:44:10;26.90;;;15.50;;
78342;SDS011;67618;52.444;21.192;2023-03-23T04:49:12;29.40;;;15.40;;
78342;SDS011;67618;52.444;21.192;2023-03-23T04:54:16;27.40;;;15.70;;
78342;SDS011;67618;52.444;21.192;2023-03-23T04:59:17;25.00;;;14.80;;
78342;SDS011;67618;52.444;21.192;2023-03-23T05:04:19;36.50;;;18.90;;
78342;SDS011;67618;52.444;21.192;2023-03-23T05:09:20;28.90;;;16.70;;
78342;SDS011;67618;52.444;21.192;2023-03-23T05:14:22;63.10;;;36.70;;
78342;SDS011;67618;52.444;21.192;2023-03-23T05:19:24;36.20;;;22.30;;
78342;SDS011;67618;52.444;21.192;2023-03-23T05:24:29;49.50;;;24.80;;
78342;SDS011;67618;52.444;21.192;2023-03-23T05:29:34;70.20;;;31.40;;
78342;SDS011;67618;52.444;21.192;2023-03-23T05:34:37;38.50;;;19.80;;
78342;SDS011;67618;52.444;21.192;2023-03-23T05:39:38;25.40;;;15.30;;
78342;SDS011;67618;52.444;21.192;2023-03-23T05:44:40;26.30;;;14.50;;
78342;SDS011;67618;52.444;21.192;2023-03-23T05:49:42;25.00;;;13.70;;
78342;SDS011;67618;52.444;21.192;2023-03-23T05:54:43;28.50;;;16.30;;
78342;SDS011;67618;52.444;21.192;2023-03-23T05:59:45;29.40;;;15.40;;
78342;SDS011;67618;52.444;21.192;2023-03-23T06:04:47;30.60;;;17.40;;
78342;SDS011;67618;52.444;21.192;2023-03-23T06:09:50;27.10;;;16.80;;
78342;SDS011;67618;52.444;21.192;2023-03-23T06:14:52;26.00;;;15.60;;
78342;SDS011;67618;52.444;21.192;2023-03-23T06:19:54;29.90;;;17.90;;
78342;SDS011;67618;52.444;21.192;2023-03-23T06:24:56;29.60;;;17.00;;
78342;SDS011;67618;52.444;21.192;2023-03-23T06:30:00;31.20;;;17.90;;
78342;SDS011;67618;52.444;21.192;2023-03-23T06:35:03;31.90;;;17.10;;
78342;SDS011;67618;52.444;21.192;2023-03-23T06:40:05;25.10;;;15.50;;
78342;SDS011;67618;52.444;21.192;2023-03-23T06:45:07;27.30;;;13.50;;
78342;SDS011;67618;52.444;21.192;2023-03-23T06:50:09;26.70;;;14.70;;
78342;SDS011;67618;52.444;21.192;2023-03-23T06:55:11;23.50;;;13.90;;
78342;SDS011;67618;52.444;21.192;2023-03-23T07:00:13;20.80;;;13.80;;
78342;SDS011;67618;52.444;21.192;2023-03-23T07:05:16;19.90;;;12.90;;
78342;SDS011;67618;52.444;21.192;2023-03-23T07:10:17;19.70;;;12.40;;
78342;SDS011;67618;52.444;21.192;2023-03-23T07:15:19;21.80;;;12.70;;
78342;SDS011;67618;52.444;21.192;2023-03-23T07:20:21;22.40;;;13.10;;
78342;SDS011;67618;52.444;21.192;2023-03-23T07:25:22;22.00;;;12.60;;
78342;SDS011;67618;52.444;21.192;2023-03-23T07:30:24;23.10;;;12.80;;
78342;SDS011;67618;52.444;21.192;2023-03-23T07:35:25;22.80;;;14.40;;
78342;SDS011;67618;52.444;21.192;2023-03-23T07:40:27;21.00;;;13.20;;
78342;SDS011;67618;52.444;21.192;2023-03-23T07:50:32;25.00;;;12.10;;
78342;SDS011;67618;52.444;21.192;2023-03-23T07:55:33;17.30;;;11.00;;
78342;SDS011;67618;52.444;21.192;2023-03-23T08:00:35;14.70;;;9.40;;
78342;SDS011;67618;52.444;21.192;2023-03-23T08:05:37;14.30;;;8.90;;
78342;SDS011;67618;52.444;21.192;2023-03-23T08:10:38;12.10;;;7.70;;
78342;SDS011;67618;52.444;21.192;2023-03-23T08:15:40;12.70;;;8.20;;
78342;SDS011;67618;52.444;21.192;2023-03-23T08:20:41;16.30;;;8.40;;
78342;SDS011;67618;52.444;21.192;2023-03-23T08:25:43;14.40;;;8.40;;
78342;SDS011;67618;52.444;21.192;2023-03-23T08:30:44;15.20;;;8.40;;
78342;SDS011;67618;52.444;21.192;2023-03-23T08:35:45;13.30;;;7.80;;
78342;SDS011;67618;52.444;21.192;2023-03-23T08:40:59;11.30;;;6.20;;
78342;SDS011;67618;52.444;21.192;2023-03-23T08:46:03;10.00;;;5.90;;
78342;SDS011;67618;52.444;21.192;2023-03-23T08:51:10;10.10;;;6.30;;
78342;SDS011;67618;52.444;21.192;2023-03-23T08:56:11;10.00;;;6.60;;
78342;SDS011;67618;52.444;21.192;2023-03-23T09:06:15;10.60;;;5.90;;
78342;SDS011;67618;52.444;21.192;2023-03-23T09:11:17;8.80;;;4.60;;
78342;SDS011;67618;52.444;21.192;2023-03-23T09:16:18;7.50;;;3.80;;
78342;SDS011;67618;52.444;21.192;2023-03-23T09:21:20;8.00;;;4.20;;
78342;SDS011;67618;52.444;21.192;2023-03-23T09:26:22;9.30;;;4.20;;
78342;SDS011;67618;52.444;21.192;2023-03-23T09:31:24;6.20;;;3.80;;
78342;SDS011;67618;52.444;21.192;2023-03-23T09:36:28;19.40;;;10.00;;
78342;SDS011;67618;52.444;21.192;2023-03-23T09:52:37;9.70;;;4.50;;
78342;SDS011;67618;52.444;21.192;2023-03-23T09:58:21;8.10;;;4.90;;
78342;SDS011;67618;52.444;21.192;2023-03-23T10:03:27;6.90;;;4.60;;
78342;SDS011;67618;52.444;21.192;2023-03-23T10:08:34;7.90;;;4.60;;
78342;SDS011;67618;52.444;21.192;2023-03-23T10:18:53;8.10;;;4.30;;
78342;SDS011;67618;52.444;21.192;2023-03-23T10:24:08;6.30;;;4.30;;
78342;SDS011;67618;52.444;21.192;2023-03-23T10:29:18;7.50;;;4.00;;
78342;SDS011;67618;52.444;21.192;2023-03-23T10:39:30;4.90;;;3.50;;
78342;SDS011;67618;52.444;21.192;2023-03-23T10:44:39;7.60;;;3.50;;
78342;SDS011;67618;52.444;21.192;2023-03-23T10:49:42;4.50;;;3.10;;
78342;SDS011;67618;52.444;21.192;2023-03-23T11:00:21;12.20;;;4.80;;
78342;SDS011;67618;52.444;21.192;2023-03-23T11:05:37;9.00;;;4.20;;
78342;SDS011;67618;52.444;21.192;2023-03-23T11:15:59;9.40;;;3.50;;
78342;SDS011;67618;52.444;21.192;2023-03-23T11:21:02;11.10;;;4.50;;
78342;SDS011;67618;52.444;21.192;2023-03-23T11:31:10;5.80;;;3.20;;
78342;SDS011;67618;52.444;21.192;2023-03-23T11:36:12;3.70;;;2.10;;
78342;SDS011;67618;52.444;21.192;2023-03-23T11:41:18;4.90;;;3.00;;
78342;SDS011;67618;52.444;21.192;2023-03-23T11:56:40;4.70;;;2.60;;
78342;SDS011;67618;52.444;21.192;2023-03-23T12:01:48;4.70;;;2.80;;
78342;SDS011;67618;52.444;21.192;2023-03-23T12:12:26;3.90;;;2.60;;
78342;SDS011;67618;52.444;21.192;2023-03-23T12:17:41;12.40;;;6.80;;
78342;SDS011;67618;52.444;21.192;2023-03-23T12:28:21;5.20;;;2.90;;
78342;SDS011;67618;52.444;21.192;2023-03-23T12:44:11;14.50;;;5.30;;
78342;SDS011;67618;52.444;21.192;2023-03-23T12:54:28;7.10;;;4.40;;
78342;SDS011;67618;52.444;21.192;2023-03-23T13:10:25;7.60;;;3.10;;
78342;SDS011;67618;52.444;21.192;2023-03-23T13:26:13;8.80;;;5.80;;
78342;SDS011;67618;52.444;21.192;2023-03-23T13:31:23;7.90;;;4.00;;
78342;SDS011;67618;52.444;21.192;2023-03-23T13:41:58;24.00;;;13.10;;
78342;SDS011;67618;52.444;21.192;2023-03-23T14:08:13;4.80;;;2.50;;
78342;SDS011;67618;52.444;21.192;2023-03-23T14:13:45;7.30;;;2.50;;
78342;SDS011;67618;52.444;21.192;2023-03-23T14:18:52;5.00;;;2.10;;
78342;SDS011;67618;52.444;21.192;2023-03-23T14:23:55;5.00;;;2.90;;
78342;SDS011;67618;52.444;21.192;2023-03-23T14:28:57;6.00;;;3.20;;
78342;SDS011;67618;52.444;21.192;2023-03-23T14:34:02;6.00;;;3.20;;
78342;SDS011;67618;52.444;21.192;2023-03-23T14:39:30;10.20;;;5.30;;
78342;SDS011;67618;52.444;21.192;2023-03-23T14:44:34;11.60;;;5.40;;
78342;SDS011;67618;52.444;21.192;2023-03-23T14:49:40;13.80;;;7.20;;
78342;SDS011;67618;52.444;21.192;2023-03-23T14:54:44;9.00;;;5.10;;
78342;SDS011;67618;52.444;21.192;2023-03-23T14:59:47;7.90;;;4.40;;
78342;SDS011;67618;52.444;21.192;2023-03-23T15:04:52;8.40;;;5.60;;
78342;SDS011;67618;52.444;21.192;2023-03-23T15:09:57;9.10;;;4.50;;
78342;SDS011;67618;52.444;21.192;2023-03-23T15:15:00;11.20;;;7.10;;
78342;SDS011;67618;52.444;21.192;2023-03-23T15:20:08;6.90;;;4.40;;
78342;SDS011;67618;52.444;21.192;2023-03-23T15:30:31;6.60;;;4.40;;
78342;SDS011;67618;52.444;21.192;2023-03-23T15:40:42;11.10;;;5.90;;
78342;SDS011;67618;52.444;21.192;2023-03-23T15:45:53;8.20;;;4.40;;
78342;SDS011;67618;52.444;21.192;2023-03-23T15:51:06;6.40;;;4.40;;
78342;SDS011;67618;52.444;21.192;2023-03-23T15:56:09;7.40;;;4.20;;
78342;SDS011;67618;52.444;21.192;2023-03-23T16:01:20;18.20;;;14.40;;
78342;SDS011;67618;52.444;21.192;2023-03-23T16:06:25;5.40;;;3.90;;
78342;SDS011;67618;52.444;21.192;2023-03-23T16:11:28;7.50;;;3.80;;
78342;SDS011;67618;52.444;21.192;2023-03-23T16:16:33;6.10;;;3.30;;
78342;SDS011;67618;52.444;21.192;2023-03-23T16:21:38;7.50;;;4.00;;
78342;SDS011;67618;52.444;21.192;2023-03-23T16:26:40;5.30;;;3.50;;
78342;SDS011;67618;52.444;21.192;2023-03-23T16:31:42;7.50;;;4.10;;
78342;SDS011;67618;52.444;21.192;2023-03-23T16:36:43;8.10;;;4.60;;
78342;SDS011;67618;52.444;21.192;2023-03-23T16:41:45;6.40;;;3.40;;
78342;SDS011;67618;52.444;21.192;2023-03-23T16:46:46;46.20;;;17.10;;
78342;SDS011;67618;52.444;21.192;2023-03-23T16:51:48;54.50;;;13.10;;
78342;SDS011;67618;52.444;21.192;2023-03-23T16:56:49;6.70;;;4.60;;
78342;SDS011;67618;52.444;21.192;2023-03-23T17:01:50;23.60;;;7.80;;
78342;SDS011;67618;52.444;21.192;2023-03-23T17:06:52;9.80;;;4.30;;
78342;SDS011;67618;52.444;21.192;2023-03-23T17:11:54;7.00;;;4.20;;
78342;SDS011;67618;52.444;21.192;2023-03-23T17:16:55;8.80;;;5.70;;
78342;SDS011;67618;52.444;21.192;2023-03-23T17:21:57;6.60;;;4.40;;
78342;SDS011;67618;52.444;21.192;2023-03-23T17:26:58;11.40;;;6.40;;
78342;SDS011;67618;52.444;21.192;2023-03-23T17:32:00;11.10;;;7.20;;
78342;SDS011;67618;52.444;21.192;2023-03-23T17:37:02;16.10;;;9.20;;
78342;SDS011;67618;52.444;21.192;2023-03-23T17:42:04;10.20;;;5.70;;
78342;SDS011;67618;52.444;21.192;2023-03-23T17:47:06;7.00;;;4.30;;
78342;SDS011;67618;52.444;21.192;2023-03-23T17:52:07;7.40;;;5.00;;
78342;SDS011;67618;52.444;21.192;2023-03-23T17:57:09;8.60;;;5.00;;
78342;SDS011;67618;52.444;21.192;2023-03-23T18:02:10;13.10;;;5.40;;
78342;SDS011;67618;52.444;21.192;2023-03-23T18:07:14;10.20;;;6.30;;
78342;SDS011;67618;52.444;21.192;2023-03-23T18:12:15;16.10;;;10.60;;
78342;SDS011;67618;52.444;21.192;2023-03-23T18:17:17;24.90;;;14.40;;
78342;SDS011;67618;52.444;21.192;2023-03-23T18:22:21;19.70;;;14.50;;
78342;SDS011;67618;52.444;21.192;2023-03-23T18:27:23;24.90;;;13.90;;
78342;SDS011;67618;52.444;21.192;2023-03-23T18:32:25;18.20;;;12.10;;
78342;SDS011;67618;52.444;21.192;2023-03-23T18:37:28;23.60;;;14.40;;
78342;SDS011;67618;52.444;21.192;2023-03-23T18:42:29;59.10;;;25.40;;
78342;SDS011;67618;52.444;21.192;2023-03-23T18:47:31;24.50;;;10.10;;
78342;SDS011;67618;52.444;21.192;2023-03-23T18:52:34;34.00;;;12.90;;
78342;SDS011;67618;52.444;21.192;2023-03-23T18:57:37;36.40;;;15.40;;
78342;SDS011;67618;52.444;21.192;2023-03-23T19:02:39;53.80;;;20.20;;
78342;SDS011;67618;52.444;21.192;2023-03-23T19:07:41;40.80;;;19.60;;
78342;SDS011;67618;52.444;21.192;2023-03-23T19:12:43;47.00;;;22.60;;
78342;SDS011;67618;52.444;21.192;2023-03-23T19:17:45;41.60;;;20.70;;
78342;SDS011;67618;52.444;21.192;2023-03-23T19:22:46;24.60;;;14.20;;
78342;SDS011;67618;52.444;21.192;2023-03-23T19:27:48;19.20;;;10.50;;
78342;SDS011;67618;52.444;21.192;2023-03-23T19:32:50;18.60;;;11.80;;
78342;SDS011;67618;52.444;21.192;2023-03-23T19:37:51;14.50;;;9.40;;
78342;SDS011;67618;52.444;21.192;2023-03-23T19:42:53;13.50;;;8.00;;
78342;SDS011;67618;52.444;21.192;2023-03-23T19:47:54;10.20;;;6.90;;
78342;SDS011;67618;52.444;21.192;2023-03-23T19:52:56;13.00;;;7.70;;
78342;SDS011;67618;52.444;21.192;2023-03-23T19:57:57;58.20;;;23.30;;
78342;SDS011;67618;52.444;21.192;2023-03-23T20:02:59;17.80;;;9.10;;
78342;SDS011;67618;52.444;21.192;2023-03-23T20:08:00;25.00;;;13.70;;
78342;SDS011;67618;52.444;21.192;2023-03-23T20:13:03;20.30;;;11.40;;
78342;SDS011;67618;52.444;21.192;2023-03-23T20:18:05;12.80;;;7.90;;
78342;SDS011;67618;52.444;21.192;2023-03-23T20:23:07;13.00;;;7.40;;
78342;SDS011;67618;52.444;21.192;2023-03-23T20:28:08;11.50;;;5.40;;
78342;SDS011;67618;52.444;21.192;2023-03-23T20:33:10;9.30;;;5.30;;
78342;SDS011;67618;52.444;21.192;2023-03-23T20:38:11;8.60;;;5.10;;
78342;SDS011;67618;52.444;21.192;2023-03-23T20:43:13;8.60;;;4.20;;
78342;SDS011;67618;52.444;21.192;2023-03-23T20:48:15;8.00;;;5.00;;
78342;SDS011;67618;52.444;21.192;2023-03-23T20:53:16;7.40;;;4.40;;
78342;SDS011;67618;52.444;21.192;2023-03-23T20:58:18;6.40;;;4.20;;
78342;SDS011;67618;52.444;21.192;2023-03-23T21:03:25;6.50;;;3.90;;
78342;SDS011;67618;52.444;21.192;2023-03-23T21:08:32;10.00;;;6.20;;
78342;SDS011;67618;52.444;21.192;2023-03-23T21:13:39;6.90;;;4.10;;
78342;SDS011;67618;52.444;21.192;2023-03-23T21:18:40;8.60;;;4.70;;
78342;SDS011;67618;52.444;21.192;2023-03-23T21:23:42;10.10;;;5.40;;
78342;SDS011;67618;52.444;21.192;2023-03-23T21:28:47;6.50;;;3.70;;
78342;SDS011;67618;52.444;21.192;2023-03-23T21:33:50;4.80;;;3.50;;
78342;SDS011;67618;52.444;21.192;2023-03-23T21:38:52;6.30;;;3.70;;
78342;SDS011;67618;52.444;21.192;2023-03-23T21:43:54;8.30;;;4.40;;
78342;SDS011;67618;52.444;21.192;2023-03-23T21:53:59;7.30;;;4.00;;
78342;SDS011;67618;52.444;21.192;2023-03-23T21:59:00;7.50;;;3.30;;
78342;SDS011;67618;52.444;21.192;2023-03-23T22:04:03;5.80;;;3.30;;
78342;SDS011;67618;52.444;21.192;2023-03-23T22:09:06;18.40;;;7.20;;
78342;SDS011;67618;52.444;21.192;2023-03-23T22:14:09;8.10;;;4.60;;
78342;SDS011;67618;52.444;21.192;2023-03-23T22:19:11;6.10;;;3.30;;
78342;SDS011;67618;52.444;21.192;2023-03-23T22:24:13;5.40;;;3.80;;
78342;SDS011;67618;52.444;21.192;2023-03-23T22:29:15;6.80;;;4.40;;
78342;SDS011;67618;52.444;21.192;2023-03-23T22:34:17;6.20;;;4.10;;
78342;SDS011;67618;52.444;21.192;2023-03-23T22:39:18;6.90;;;4.30;;
78342;SDS011;67618;52.444;21.192;2023-03-23T22:44:20;7.00;;;3.80;;
78342;SDS011;67618;52.444;21.192;2023-03-23T22:49:21;8.50;;;4.00;;
78342;SDS011;67618;52.444;21.192;2023-03-23T22:54:23;5.60;;;3.30;;
78342;SDS011;67618;52.444;21.192;2023-03-23T22:59:24;6.30;;;4.40;;
78342;SDS011;67618;52.444;21.192;2023-03-23T23:04:26;5.90;;;4.30;;
78342;SDS011;67618;52.444;21.192;2023-03-23T23:09:28;6.40;;;4.10;;
78342;SDS011;67618;52.444;21.192;2023-03-23T23:14:29;8.60;;;4.20;;
78342;SDS011;67618;52.444;21.192;2023-03-23T23:19:31;6.50;;;4.20;;
78342;SDS011;67618;52.444;21.192;2023-03-23T23:24:32;9.30;;;5.00;;
78342;SDS011;67618;52.444;21.192;2023-03-23T23:29:34;8.80;;;4.80;;
78342;SDS011;67618;52.444;21.192;2023-03-23T23:34:36;9.60;;;5.30;;
78342;SDS011;67618;52.444;21.192;2023-03-23T23:39:38;8.30;;;4.80;;
78342;SDS011;67618;52.444;21.192;2023-03-23T23:44:41;8.50;;;5.10;;
78342;SDS011;67618;52.444;21.192;2023-03-23T23:49:43;8.30;;;5.40;;
78342;SDS011;67618;52.444;21.192;2023-03-23T23:54:44;8.30;;;5.20;;
78342;SDS011;67618;52.444;21.192;2023-03-23T23:59:48;9.00;;;5.20;;
